X  Close Metar Aviation Weather Data     EDDL Düsseldorf Airport
Temperature
19°C Temperature
13°C Dewpoint
68% Humidity



Wind
13 KM/H
8 MPH
4 M/S
7 KTS



140°
SE
Current Conditions

Light Showers, Rain Light Showers, Rain
Pressure 1005.76 (hPa) - 29.7 (inHg)
Visibility 6 (mile) - 9.7 (km)
Airport
Airport-code EDDL

Location: Düsseldorf Airport
Distance: 30 (km)

Metar:
EDDL 141650Z AUTO 14007KT 110V170 9999 -SHRA FEW035 BKN044 FEW///CB 19/13 Q1006 NOSIG

Time: 14-06-2024 16:50 CEST